Time;durP1;ratioP1;P1;durP2;ratioP2;P2;SDS_P1;SDS_P2;PMS_P1;PMS_P2;Temp;Humidity;BMP_temperature;BMP_pressure;BME280_temperature;BME280_humidity;BME280_pressure;Samples;Min_cycle;Max_cycle;Signal;HPM_P1;HPM_P2
2024/01/12 00:00:46;;;;;;;31.05;10.15;;;-5.60;99.90;;;;;;5033068;28;20025;-73
2024/01/12 00:03:12;;;;;;;28.42;10.10;;;-5.60;99.90;;;;;;5031828;28;20034;-73
2024/01/12 00:05:38;;;;;;;33.78;11.60;;;-5.50;99.90;;;;;;5031951;28;20091;-73
2024/01/12 00:08:04;;;;;;;22.08;9.43;;;-5.50;99.90;;;;;;5032984;28;20053;-73
2024/01/12 00:10:29;;;;;;;20.63;7.15;;;-5.50;99.90;;;;;;5033089;28;20053;-73
2024/01/12 00:12:55;;;;;;;15.00;5.43;;;-5.50;99.90;;;;;;5033020;28;20454;-73
2024/01/12 00:15:21;;;;;;;16.08;6.03;;;-5.50;99.90;;;;;;5016512;28;20037;-73
2024/01/12 00:17:46;;;;;;;13.52;6.18;;;-5.60;99.90;;;;;;5036724;28;20025;-73
2024/01/12 00:20:12;;;;;;;13.02;5.85;;;-5.60;99.90;;;;;;5037034;28;20022;-73
2024/01/12 00:22:38;;;;;;;12.38;5.82;;;-5.60;99.90;;;;;;5036983;28;20108;-73
2024/01/12 00:25:04;;;;;;;13.85;6.07;;;-5.60;99.90;;;;;;5036812;28;20111;-73
2024/01/12 00:27:30;;;;;;;14.15;5.82;;;-5.60;99.90;;;;;;5036486;28;20053;-73
2024/01/12 00:29:55;;;;;;;12.00;5.35;;;-5.60;99.90;;;;;;5036797;28;20026;-73
2024/01/12 00:32:21;;;;;;;11.50;5.47;;;-5.60;99.90;;;;;;5018814;28;20049;-73
2024/01/12 00:34:47;;;;;;;12.63;5.57;;;-5.70;99.90;;;;;;5036442;28;20478;-73
2024/01/12 00:37:12;;;;;;;13.10;6.00;;;-5.70;99.90;;;;;;5035203;28;20110;-73
2024/01/12 00:39:38;;;;;;;15.05;6.00;;;-5.70;99.90;;;;;;5035084;28;20057;-73
2024/01/12 00:42:05;;;;;;;14.95;5.97;;;-5.70;99.90;;;;;;5036400;28;20030;-73
2024/01/12 00:44:30;;;;;;;14.02;6.18;;;-5.70;99.90;;;;;;5036269;28;20053;-73
2024/01/12 00:46:56;;;;;;;20.17;6.13;;;-5.70;99.90;;;;;;5036104;28;20091;-73
2024/01/12 00:49:22;;;;;;;12.80;6.30;;;-5.70;99.90;;;;;;5036021;28;20485;-74
2024/01/12 00:51:48;;;;;;;14.02;6.40;;;-5.70;99.90;;;;;;5036062;28;20021;-74
2024/01/12 00:54:14;;;;;;;12.10;6.18;;;-5.70;99.90;;;;;;5036154;28;20072;-73
2024/01/12 00:56:41;;;;;;;11.95;5.10;;;-5.70;99.90;;;;;;5036469;28;20048;-73
2024/01/12 00:59:07;;;;;;;13.70;5.57;;;-5.80;99.90;;;;;;5035927;28;20030;-74
2024/01/12 01:01:35;;;;;;;12.90;5.28;;;-5.80;99.90;;;;;;5035919;28;20025;-74
2024/01/12 01:04:01;;;;;;;11.52;5.82;;;-5.90;99.90;;;;;;5035923;28;20068;-73
2024/01/12 01:06:27;;;;;;;11.90;5.38;;;-6.00;99.90;;;;;;5035781;28;20053;-74
2024/01/12 01:08:54;;;;;;;14.35;6.70;;;-6.00;99.90;;;;;;5035947;28;20029;-73
2024/01/12 01:11:20;;;;;;;14.55;6.28;;;-6.00;99.90;;;;;;5035845;28;20029;-74
2024/01/12 01:13:45;;;;;;;12.50;6.10;;;-6.10;99.90;;;;;;5036033;28;20385;-73
2024/01/12 01:16:11;;;;;;;15.85;6.13;;;-6.00;99.90;;;;;;5034842;28;20080;-74
2024/01/12 01:18:37;;;;;;;12.35;5.60;;;-6.10;99.90;;;;;;5035602;28;20148;-73
2024/01/12 01:21:03;;;;;;;12.25;6.40;;;-6.10;99.90;;;;;;5035916;28;20124;-73
2024/01/12 01:23:28;;;;;;;16.05;6.13;;;-6.10;99.90;;;;;;5035857;28;20065;-73
2024/01/12 01:25:54;;;;;;;14.23;5.90;;;-6.00;99.90;;;;;;5035545;28;20053;-74
2024/01/12 01:28:20;;;;;;;14.00;5.95;;;-6.00;99.90;;;;;;5033336;28;20025;-73
2024/01/12 01:30:46;;;;;;;14.02;6.88;;;-6.00;99.90;;;;;;5034425;28;20045;-74
2024/01/12 01:33:12;;;;;;;14.35;6.90;;;-6.00;99.90;;;;;;5035390;28;20482;-73
2024/01/12 01:35:37;;;;;;;16.10;6.03;;;-6.00;99.90;;;;;;5035371;28;20060;-73
2024/01/12 01:38:03;;;;;;;14.00;6.45;;;-5.90;99.90;;;;;;5035293;28;20029;-74
2024/01/12 01:40:29;;;;;;;20.20;7.40;;;-5.90;99.90;;;;;;5035283;28;20056;-73
2024/01/12 01:42:55;;;;;;;16.35;6.88;;;-5.80;99.90;;;;;;5035192;28;20022;-74
2024/01/12 01:45:21;;;;;;;21.95;8.00;;;-5.80;99.90;;;;;;5035431;28;20374;-73
2024/01/12 01:47:47;;;;;;;17.80;6.93;;;-5.80;99.90;;;;;;5033369;28;20034;-74
2024/01/12 01:50:15;;;;;;;18.42;7.20;;;-5.80;99.90;;;;;;5033886;28;20033;-74
2024/01/12 01:52:43;;;;;;;14.98;5.55;;;-5.80;99.90;;;;;;5035056;28;20025;-74
2024/01/12 01:55:11;;;;;;;16.38;6.38;;;-5.90;99.90;;;;;;5035197;28;20022;-73
2024/01/12 01:57:39;;;;;;;17.05;6.22;;;-5.90;99.90;;;;;;5035141;28;20393;-73
2024/01/12 02:00:05;;;;;;;19.52;7.40;;;-6.00;99.90;;;;;;5034839;28;20053;-74
2024/01/12 02:02:31;;;;;;;20.65;7.93;;;-6.00;99.90;;;;;;5033605;28;20037;-74
2024/01/12 02:05:00;;;;;;;21.75;6.60;;;-6.10;99.90;;;;;;5033499;28;20025;-73
2024/01/12 02:07:26;;;;;;;24.30;6.97;;;-6.10;99.90;;;;;;5034411;28;20053;-73
2024/01/12 02:09:52;;;;;;;24.98;8.60;;;-6.20;99.90;;;;;;5035240;28;20057;-74
2024/01/12 02:12:17;;;;;;;23.52;7.45;;;-6.30;99.90;;;;;;5034605;28;20032;-73
2024/01/12 02:14:43;;;;;;;18.73;6.82;;;-6.30;99.90;;;;;;5034568;28;20026;-73
2024/01/12 02:17:09;;;;;;;17.83;6.88;;;-6.30;99.90;;;;;;5033403;28;20124;-74
2024/01/12 02:19:34;;;;;;;17.80;6.78;;;-6.30;99.90;;;;;;5033241;28;20052;-74
2024/01/12 02:22:00;;;;;;;20.55;6.38;;;-6.30;99.90;;;;;;5033201;28;20033;-73
2024/01/12 02:24:26;;;;;;;17.05;6.25;;;-6.30;99.90;;;;;;5034411;28;20135;-74
2024/01/12 02:26:51;;;;;;;12.90;5.90;;;-6.30;99.90;;;;;;5034786;28;20032;-74
2024/01/12 02:29:17;;;;;;;18.55;6.70;;;-6.30;99.90;;;;;;5033133;28;20032;-74
2024/01/12 02:31:44;;;;;;;15.45;6.40;;;-6.30;99.90;;;;;;5034263;28;20561;-74
2024/01/12 02:34:10;;;;;;;18.55;7.10;;;-6.20;99.90;;;;;;5034249;28;20482;-74
2024/01/12 02:36:36;;;;;;;17.85;7.13;;;-6.20;99.90;;;;;;5034176;28;20084;-74
2024/01/12 02:39:02;;;;;;;22.90;7.70;;;-6.20;99.90;;;;;;5034110;28;20033;-74
2024/01/12 02:41:27;;;;;;;21.92;7.68;;;-6.30;99.90;;;;;;5034099;28;20483;-74
2024/01/12 02:43:53;;;;;;;23.95;8.27;;;-6.20;99.90;;;;;;5034186;28;20072;-73
2024/01/12 02:46:19;;;;;;;22.10;8.38;;;-6.20;99.90;;;;;;5033999;28;20029;-73
2024/01/12 02:48:45;;;;;;;23.88;8.13;;;-6.20;99.90;;;;;;5032964;28;20561;-73
2024/01/12 02:51:10;;;;;;;20.55;6.85;;;-6.20;99.90;;;;;;5032651;28;20025;-74
2024/01/12 02:53:36;;;;;;;19.33;7.35;;;-6.30;99.90;;;;;;5033850;28;20036;-73
2024/01/12 02:56:01;;;;;;;19.35;7.57;;;-6.20;99.90;;;;;;5033799;28;20101;-73
2024/01/12 02:58:27;;;;;;;15.45;6.53;;;-6.20;99.90;;;;;;5033720;28;20503;-73
2024/01/12 03:00:53;;;;;;;15.52;7.05;;;-6.30;99.90;;;;;;5033741;28;20037;-74
2024/01/12 03:03:19;;;;;;;15.05;6.93;;;-6.20;99.90;;;;;;5033589;28;20033;-74
2024/01/12 03:05:45;;;;;;;17.45;6.07;;;-6.30;99.90;;;;;;5034093;28;20381;-74
2024/01/12 03:08:12;;;;;;;16.48;6.43;;;-6.30;99.90;;;;;;5033807;28;20045;-73
2024/01/12 03:10:38;;;;;;;10.50;5.47;;;-6.30;99.90;;;;;;5032362;28;20397;-74
2024/01/12 03:13:03;;;;;;;10.90;5.30;;;-6.30;99.90;;;;;;5034065;28;20026;-73
2024/01/12 03:15:29;;;;;;;12.38;5.45;;;-6.40;99.90;;;;;;5033595;28;20494;-74
2024/01/12 03:17:58;;;;;;;16.67;6.20;;;-6.40;99.90;;;;;;5033502;28;20040;-74
2024/01/12 03:20:24;;;;;;;17.73;5.88;;;-6.40;99.90;;;;;;5032270;28;20033;-73
2024/01/12 03:22:50;;;;;;;12.88;5.57;;;-6.40;99.90;;;;;;5033436;28;20075;-73
2024/01/12 03:25:15;;;;;;;11.88;6.35;;;-6.40;99.90;;;;;;5033725;28;20465;-73
2024/01/12 03:27:41;;;;;;;13.60;6.20;;;-6.50;99.90;;;;;;5033498;28;20032;-73
2024/01/12 03:30:07;;;;;;;14.00;6.55;;;-6.50;99.90;;;;;;5033364;28;20029;-73
2024/01/12 03:32:33;;;;;;;17.08;6.60;;;-6.50;99.90;;;;;;5032309;28;20060;-73
2024/01/12 03:34:59;;;;;;;13.50;6.60;;;-6.50;99.90;;;;;;5033384;28;20500;-74
2024/01/12 03:37:25;;;;;;;12.25;6.55;;;-6.50;99.90;;;;;;5033199;28;20482;-73
2024/01/12 03:39:51;;;;;;;17.80;7.00;;;-6.50;99.90;;;;;;5033314;28;20127;-73
2024/01/12 03:42:16;;;;;;;15.48;7.15;;;-6.50;99.90;;;;;;5015777;28;20505;-73
2024/01/12 03:44:42;;;;;;;16.58;6.82;;;-6.50;99.90;;;;;;5032341;28;20107;-73
2024/01/12 03:47:08;;;;;;;18.13;6.70;;;-6.50;99.90;;;;;;5033020;28;20031;-73
2024/01/12 03:49:34;;;;;;;16.83;6.80;;;-6.50;99.90;;;;;;5033084;28;20036;-73
2024/01/12 03:52:00;;;;;;;14.50;6.95;;;-6.50;99.90;;;;;;5037242;28;20026;-73
2024/01/12 03:54:25;;;;;;;15.23;6.38;;;-6.50;99.90;;;;;;5037222;28;20021;-73
2024/01/12 03:56:52;;;;;;;15.23;6.90;;;-6.50;99.90;;;;;;5037177;28;20025;-73
2024/01/12 03:59:18;;;;;;;13.88;6.57;;;-6.50;99.90;;;;;;5037073;28;20117;-73
2024/01/12 04:01:47;;;;;;;15.15;6.75;;;-6.50;99.90;;;;;;5037331;28;20037;-73
2024/01/12 04:04:13;;;;;;;16.10;7.18;;;-6.50;99.90;;;;;;5036525;28;20053;-74
2024/01/12 04:06:40;;;;;;;18.52;7.30;;;-6.50;99.90;;;;;;5036914;28;20084;-74
2024/01/12 04:09:06;;;;;;;15.45;8.05;;;-6.50;99.90;;;;;;5037126;28;20018;-73
2024/01/12 04:11:32;;;;;;;14.35;7.30;;;-6.60;99.90;;;;;;5037127;28;20029;-73
2024/01/12 04:13:57;;;;;;;15.75;7.43;;;-6.50;99.90;;;;;;5037292;28;20028;-73
2024/01/12 04:16:23;;;;;;;18.00;7.50;;;-6.60;99.90;;;;;;5037086;28;20397;-73
2024/01/12 04:18:49;;;;;;;15.90;6.75;;;-6.60;99.90;;;;;;5037963;28;20365;-74
2024/01/12 04:21:14;;;;;;;20.83;7.90;;;-6.60;99.90;;;;;;5038324;28;20385;-73
2024/01/12 04:23:40;;;;;;;20.42;7.70;;;-6.70;99.90;;;;;;5038404;28;20384;-74
2024/01/12 04:26:09;;;;;;;14.95;6.78;;;-6.70;99.90;;;;;;5038375;28;20033;-73
2024/01/12 04:28:34;;;;;;;17.52;7.85;;;-6.80;99.90;;;;;;5036565;28;20030;-73
2024/01/12 04:31:04;;;;;;;16.25;6.90;;;-6.80;99.90;;;;;;5036669;28;20033;-73
2024/01/12 04:33:30;;;;;;;14.85;7.28;;;-6.90;99.90;;;;;;5036969;28;20028;-73
2024/01/12 04:35:59;;;;;;;16.55;7.60;;;-6.90;99.90;;;;;;5035316;28;20417;-73
2024/01/12 04:38:27;;;;;;;12.85;6.15;;;-6.90;99.90;;;;;;5036619;28;20034;-73
2024/01/12 04:40:53;;;;;;;14.63;6.88;;;-6.80;99.90;;;;;;5035217;28;20482;-74
2024/01/12 04:43:19;;;;;;;16.27;7.20;;;-6.80;99.90;;;;;;5036496;28;20040;-73
2024/01/12 04:45:45;;;;;;;13.85;6.63;;;-6.90;99.90;;;;;;5036898;28;20025;-73
2024/01/12 04:48:11;;;;;;;15.95;6.43;;;-6.90;99.90;;;;;;5036494;28;20144;-75
2024/01/12 04:50:37;;;;;;;19.75;8.00;;;-6.90;99.90;;;;;;5036480;28;20385;-73
2024/01/12 04:53:02;;;;;;;15.45;7.78;;;-6.90;99.90;;;;;;5036640;28;20029;-73
2024/01/12 04:55:28;;;;;;;15.90;7.32;;;-7.00;99.90;;;;;;5036714;28;20040;-73
2024/01/12 04:57:54;;;;;;;16.92;7.20;;;-7.00;99.90;;;;;;5034914;28;20025;-74
2024/01/12 05:00:20;;;;;;;20.42;7.55;;;-6.90;99.90;;;;;;5036544;28;20037;-73
2024/01/12 05:02:46;;;;;;;15.68;6.70;;;-6.90;99.90;;;;;;5033602;28;20034;-73
2024/01/12 05:05:11;;;;;;;17.85;7.50;;;-6.80;99.90;;;;;;5018340;28;20032;-73
2024/01/12 05:07:37;;;;;;;15.10;6.38;;;-6.80;99.90;;;;;;5036011;28;20034;-73
2024/01/12 05:10:03;;;;;;;16.75;6.78;;;-6.80;99.90;;;;;;5035128;28;20025;-73
2024/01/12 05:12:29;;;;;;;16.25;7.97;;;-6.80;99.90;;;;;;5034802;28;20022;-73
2024/01/12 05:14:55;;;;;;;12.90;7.00;;;-6.80;99.90;;;;;;5034561;28;20083;-73
2024/01/12 05:17:22;;;;;;;16.73;8.00;;;-6.80;99.90;;;;;;5035925;28;20068;-73
2024/01/12 05:19:48;;;;;;;16.45;7.60;;;-6.80;99.90;;;;;;5035805;28;20025;-73
2024/01/12 05:22:15;;;;;;;18.45;7.72;;;-6.80;99.90;;;;;;5036268;28;20037;-73
2024/01/12 05:24:41;;;;;;;18.52;8.25;;;-6.80;99.90;;;;;;5035396;28;20036;-73
2024/01/12 05:27:07;;;;;;;17.85;7.95;;;-6.80;99.90;;;;;;5035523;28;20036;-73
2024/01/12 05:29:33;;;;;;;16.10;7.70;;;-6.80;99.90;;;;;;5035861;28;20032;-73
2024/01/12 05:32:06;;;;;;;15.73;7.88;;;-6.70;99.90;;;;;;5036155;28;20025;-74
2024/01/12 05:34:32;;;;;;;17.15;7.90;;;-6.70;99.90;;;;;;5034910;28;20041;-73
2024/01/12 05:36:57;;;;;;;16.27;8.15;;;-6.70;99.90;;;;;;5035235;28;20025;-73
2024/01/12 05:39:23;;;;;;;19.83;8.88;;;-6.70;99.90;;;;;;5035157;28;20048;-73
2024/01/12 05:41:49;;;;;;;19.70;9.57;;;-6.70;99.90;;;;;;5033963;28;20029;-74
2024/01/12 05:44:14;;;;;;;20.17;9.10;;;-6.60;99.90;;;;;;5034123;28;20061;-73
2024/01/12 05:46:41;;;;;;;19.88;9.07;;;-6.60;99.90;;;;;;5033850;28;20088;-74
2024/01/12 05:49:06;;;;;;;22.50;9.90;;;-6.60;99.90;;;;;;5034948;28;20060;-73
2024/01/12 05:51:32;;;;;;;18.98;9.48;;;-6.70;99.90;;;;;;5035125;28;20029;-74
2024/01/12 05:53:58;;;;;;;20.85;9.02;;;-6.70;99.90;;;;;;5033728;28;20398;-73
2024/01/12 05:56:24;;;;;;;14.50;7.32;;;-6.70;99.90;;;;;;5035135;28;20065;-73
2024/01/12 05:58:50;;;;;;;16.05;7.13;;;-6.80;99.90;;;;;;5033719;28;20040;-73
2024/01/12 06:01:17;;;;;;;21.92;8.90;;;-6.80;99.90;;;;;;5034126;28;20053;-74
2024/01/12 06:03:44;;;;;;;17.20;7.88;;;-6.80;99.90;;;;;;5034889;28;20048;-74
2024/01/12 06:06:09;;;;;;;15.32;7.00;;;-6.80;99.90;;;;;;5033504;28;20120;-74
2024/01/12 06:08:35;;;;;;;17.55;7.72;;;-6.80;99.90;;;;;;5034692;28;20064;-73
2024/01/12 06:11:01;;;;;;;14.25;7.38;;;-6.80;99.90;;;;;;5033542;28;20089;-74
2024/01/12 06:13:26;;;;;;;14.80;7.35;;;-6.80;99.90;;;;;;5034708;28;20539;-73
2024/01/12 06:15:52;;;;;;;15.90;7.93;;;-6.70;99.90;;;;;;5034848;28;20485;-73
2024/01/12 06:18:18;;;;;;;13.85;7.63;;;-6.80;99.90;;;;;;5034496;28;20052;-73
2024/01/12 06:20:43;;;;;;;15.73;7.45;;;-6.80;99.90;;;;;;5034684;28;20032;-73
2024/01/12 06:23:09;;;;;;;18.50;7.63;;;-6.80;99.90;;;;;;5034473;28;20037;-74
2024/01/12 06:25:36;;;;;;;18.17;9.65;;;-6.80;99.90;;;;;;5033219;28;20037;-73
2024/01/12 06:28:05;;;;;;;21.25;9.25;;;-6.80;99.90;;;;;;5032691;28;20021;-73
2024/01/12 06:30:31;;;;;;;22.15;10.60;;;-6.70;99.90;;;;;;5034262;28;20551;-73
2024/01/12 06:32:58;;;;;;;20.30;10.32;;;-6.70;99.90;;;;;;5034248;28;20034;-73
2024/01/12 06:35:24;;;;;;;19.88;9.88;;;-6.80;99.90;;;;;;5034243;28;20030;-74
2024/01/12 06:37:53;;;;;;;25.65;10.60;;;-6.80;99.90;;;;;;5034129;28;20026;-73
2024/01/12 06:40:18;;;;;;;21.83;10.38;;;-6.80;99.90;;;;;;5034089;28;20079;-73
2024/01/12 06:42:44;;;;;;;23.27;11.35;;;-6.80;99.90;;;;;;5034422;28;20436;-74
2024/01/12 06:45:13;;;;;;;27.08;11.77;;;-6.80;99.90;;;;;;5034492;28;20057;-74
2024/01/12 06:47:39;;;;;;;25.75;11.82;;;-6.80;99.90;;;;;;5032660;28;20034;-74
2024/01/12 06:50:05;;;;;;;23.20;11.52;;;-6.80;99.90;;;;;;5034096;28;20036;-73
2024/01/12 06:52:31;;;;;;;21.98;10.18;;;-6.80;99.90;;;;;;5032694;28;20029;-73
2024/01/12 06:54:56;;;;;;;23.90;10.52;;;-6.80;99.90;;;;;;5033887;28;20067;-73
2024/01/12 06:57:22;;;;;;;21.92;10.25;;;-6.80;99.90;;;;;;5033967;28;20068;-73
2024/01/12 06:59:48;;;;;;;25.15;11.80;;;-6.80;99.90;;;;;;5033804;28;20164;-73
2024/01/12 07:02:15;;;;;;;28.80;13.65;;;-6.80;99.90;;;;;;5034742;28;20480;-73
2024/01/12 07:04:41;;;;;;;26.50;11.95;;;-6.80;99.90;;;;;;5034238;28;20025;-73
2024/01/12 07:07:08;;;;;;;26.83;13.10;;;-6.80;99.90;;;;;;5032674;28;20025;-73
2024/01/12 07:09:33;;;;;;;29.88;12.45;;;-6.80;99.90;;;;;;5033953;28;20032;-73
2024/01/12 07:11:59;;;;;;;26.23;12.40;;;-6.80;99.90;;;;;;5032628;28;20022;-73
2024/01/12 07:14:25;;;;;;;25.13;11.80;;;-6.90;99.90;;;;;;5033973;28;20197;-73
2024/01/12 07:16:50;;;;;;;18.52;9.88;;;-6.80;99.90;;;;;;5034025;28;20446;-73
2024/01/12 07:19:16;;;;;;;18.27;8.88;;;-6.80;99.90;;;;;;5032498;28;20520;-73
2024/01/12 07:21:42;;;;;;;22.10;9.13;;;-6.80;99.90;;;;;;5034191;28;20042;-73
2024/01/12 07:24:08;;;;;;;15.48;8.05;;;-6.80;99.90;;;;;;5033386;28;20104;-73
2024/01/12 07:26:34;;;;;;;18.80;8.65;;;-6.80;99.90;;;;;;5033542;28;20043;-73
2024/01/12 07:29:00;;;;;;;20.52;9.25;;;-6.80;99.90;;;;;;5033398;28;20029;-73
2024/01/12 07:31:26;;;;;;;18.35;8.57;;;-6.80;99.90;;;;;;5033445;28;20026;-73
2024/01/12 07:33:52;;;;;;;19.13;8.85;;;-6.80;99.90;;;;;;5033502;28;20465;-73
2024/01/12 07:36:18;;;;;;;17.00;8.00;;;-6.80;99.90;;;;;;5033777;28;20029;-73
2024/01/12 07:38:43;;;;;;;17.23;8.23;;;-6.80;99.90;;;;;;5032362;28;20071;-73
2024/01/12 07:41:09;;;;;;;17.80;8.10;;;-6.80;99.90;;;;;;5033577;28;20072;-73
2024/01/12 07:43:35;;;;;;;19.92;7.93;;;-6.70;99.90;;;;;;5033323;28;20034;-73
2024/01/12 07:46:00;;;;;;;14.98;7.65;;;-6.70;99.90;;;;;;5032307;28;20028;-73
2024/01/12 07:48:26;;;;;;;19.52;8.40;;;-6.70;99.90;;;;;;5033112;28;20045;-73
2024/01/12 07:50:52;;;;;;;18.88;8.32;;;-6.70;99.90;;;;;;5033218;28;20030;-73
2024/01/12 07:53:18;;;;;;;16.75;8.43;;;-6.70;99.90;;;;;;5033234;28;20482;-73
2024/01/12 07:55:43;;;;;;;21.67;9.55;;;-6.70;99.90;;;;;;5033568;28;20486;-73
2024/01/12 07:58:09;;;;;;;20.80;9.65;;;-6.70;99.90;;;;;;5033090;28;20039;-73
2024/01/12 08:00:35;;;;;;;18.85;9.88;;;-6.70;99.90;;;;;;5032544;28;20022;-73
2024/01/12 08:03:01;;;;;;;29.60;11.43;;;-6.70;99.90;;;;;;5033637;28;20048;-73
2024/01/12 08:05:28;;;;;;;17.63;9.18;;;-6.80;99.90;;;;;;5032828;28;20026;-73
2024/01/12 08:07:54;;;;;;;23.95;10.77;;;-6.80;99.90;;;;;;5033326;28;20440;-73
2024/01/12 08:10:20;;;;;;;19.85;10.00;;;-6.80;99.90;;;;;;5033719;28;20018;-73
2024/01/12 08:12:47;;;;;;;22.17;11.30;;;-6.80;99.90;;;;;;5033080;28;20111;-73
2024/01/12 08:15:13;;;;;;;25.20;10.35;;;-6.80;99.90;;;;;;5033336;28;20104;-73
2024/01/12 08:17:40;;;;;;;21.30;10.52;;;-6.70;99.90;;;;;;5033465;28;20105;-73
2024/01/12 08:20:06;;;;;;;21.10;10.57;;;-6.80;99.90;;;;;;5032981;28;20393;-73
2024/01/12 08:22:32;;;;;;;22.83;11.25;;;-6.80;99.90;;;;;;5032114;28;20053;-73
2024/01/12 08:24:58;;;;;;;27.42;12.65;;;-6.80;99.90;;;;;;5033062;28;20064;-73
2024/01/12 08:27:24;;;;;;;35.20;15.18;;;-6.80;99.90;;;;;;5032762;28;20033;-73
2024/01/12 08:29:50;;;;;;;32.72;16.10;;;-6.80;99.90;;;;;;5032295;28;20040;-73
2024/01/12 08:32:16;;;;;;;24.70;12.20;;;-6.70;99.90;;;;;;5032985;28;20029;-73
2024/01/12 08:34:42;;;;;;;23.23;10.98;;;-6.70;99.90;;;;;;5015291;28;20030;-73
2024/01/12 08:37:08;;;;;;;21.00;11.30;;;-6.70;99.90;;;;;;5035476;28;20032;-73
2024/01/12 08:39:34;;;;;;;25.88;11.57;;;-6.60;99.90;;;;;;5035330;28;20515;-73
2024/01/12 08:41:59;;;;;;;24.98;12.85;;;-6.60;99.90;;;;;;5035526;28;20037;-73
2024/01/12 08:44:25;;;;;;;21.27;11.77;;;-6.70;99.90;;;;;;5036331;28;20481;-73
2024/01/12 08:46:54;;;;;;;24.67;11.25;;;-6.70;99.90;;;;;;5036207;28;20026;-73
2024/01/12 08:49:22;;;;;;;28.65;12.95;;;-6.70;99.90;;;;;;5036170;28;20060;-73
2024/01/12 08:51:48;;;;;;;20.52;11.30;;;-6.70;99.90;;;;;;5036824;28;20083;-73
2024/01/12 08:54:14;;;;;;;25.95;12.20;;;-6.60;99.90;;;;;;5034843;28;20029;-73
2024/01/12 08:56:41;;;;;;;27.52;12.75;;;-6.60;99.90;;;;;;5036272;28;20058;-73
2024/01/12 08:59:08;;;;;;;22.48;11.52;;;-6.50;99.90;;;;;;5035984;28;20033;-73
2024/01/12 09:01:33;;;;;;;26.40;11.80;;;-6.60;99.90;;;;;;5036034;28;20083;-73
2024/01/12 09:04:01;;;;;;;22.92;10.70;;;-6.60;99.90;;;;;;5036055;28;20029;-73
2024/01/12 09:06:27;;;;;;;23.10;11.82;;;-6.50;99.90;;;;;;5035982;28;20528;-73
2024/01/12 09:08:53;;;;;;;21.65;11.10;;;-6.60;99.90;;;;;;5035877;28;20474;-73
2024/01/12 09:11:19;;;;;;;26.92;12.45;;;-6.50;99.90;;;;;;5035976;28;20101;-73
2024/01/12 09:13:45;;;;;;;23.98;11.75;;;-6.50;99.90;;;;;;5035748;28;20609;-73
2024/01/12 09:16:11;;;;;;;22.30;11.35;;;-6.50;99.90;;;;;;5035728;28;20033;-73
2024/01/12 09:18:37;;;;;;;24.00;12.02;;;-6.40;99.90;;;;;;5034428;28;20029;-73
2024/01/12 09:21:04;;;;;;;30.35;12.20;;;-6.40;99.90;;;;;;5035684;28;20017;-73
2024/01/12 09:23:29;;;;;;;21.27;11.63;;;-6.30;99.90;;;;;;5035865;28;20036;-73
2024/01/12 09:25:55;;;;;;;24.33;10.90;;;-6.30;99.90;;;;;;5035415;28;20510;-73
2024/01/12 09:28:21;;;;;;;21.08;10.50;;;-6.30;99.90;;;;;;5035445;28;20026;-73
2024/01/12 09:30:47;;;;;;;20.92;11.20;;;-6.20;99.90;;;;;;5035542;28;20075;-72
2024/01/12 09:33:14;;;;;;;22.98;10.80;;;-6.10;99.90;;;;;;5035981;28;20030;-72
2024/01/12 09:35:40;;;;;;;20.10;10.45;;;-6.00;99.90;;;;;;5034079;28;20064;-73
2024/01/12 09:38:05;;;;;;;21.23;10.95;;;-5.90;99.90;;;;;;5035287;28;20021;-73
2024/01/12 09:40:32;;;;;;;21.63;11.20;;;-5.90;99.90;;;;;;5035573;28;20386;-73
2024/01/12 09:43:00;;;;;;;25.13;11.32;;;-5.90;99.90;;;;;;5035457;28;20051;-73
2024/01/12 09:45:26;;;;;;;26.90;11.73;;;-5.90;99.90;;;;;;5035170;28;20031;-73
2024/01/12 09:47:55;;;;;;;21.00;11.05;;;-5.90;99.90;;;;;;5034273;28;20125;-73
2024/01/12 09:50:24;;;;;;;22.70;11.35;;;-5.90;99.90;;;;;;5034025;28;20097;-73
2024/01/12 09:52:51;;;;;;;25.98;12.68;;;-5.90;99.90;;;;;;5035134;28;20469;-73
2024/01/12 09:55:16;;;;;;;24.42;11.43;;;-5.80;99.90;;;;;;5035060;28;20029;-73
2024/01/12 09:57:45;;;;;;;26.05;12.52;;;-5.70;99.90;;;;;;5034896;28;20421;-73
2024/01/12 10:00:14;;;;;;;27.52;12.38;;;-5.70;99.90;;;;;;5035191;28;20489;-73
2024/01/12 10:02:40;;;;;;;22.23;11.38;;;-5.60;99.90;;;;;;5035179;28;20433;-73
2024/01/12 10:05:07;;;;;;;27.33;11.75;;;-5.60;99.90;;;;;;5034885;28;20049;-73
2024/01/12 10:07:32;;;;;;;28.90;11.27;;;-5.50;99.90;;;;;;5034719;28;20037;-73
2024/01/12 10:09:59;;;;;;;23.33;11.32;;;-5.50;99.90;;;;;;5034756;28;20539;-73
2024/01/12 10:12:24;;;;;;;22.98;10.70;;;-5.50;99.90;;;;;;5034911;28;20544;-73
2024/01/12 10:15:00;;;;;;;22.40;10.95;;;-5.40;99.90;;;;;;5034823;28;20065;-73
2024/01/12 10:17:26;;;;;;;24.67;11.23;;;-5.30;99.90;;;;;;5034761;28;20021;-73
2024/01/12 10:19:52;;;;;;;24.50;11.57;;;-5.20;99.90;;;;;;5034555;28;20033;-73
2024/01/12 10:22:17;;;;;;;21.50;10.02;;;-5.20;99.90;;;;;;5034309;28;20366;-73
2024/01/12 10:24:43;;;;;;;24.30;12.05;;;-5.10;99.90;;;;;;5033179;28;20068;-73
2024/01/12 10:27:09;;;;;;;22.75;11.13;;;-5.00;99.90;;;;;;5034603;28;20056;-73
2024/01/12 10:29:40;;;;;;;24.40;11.40;;;-5.00;99.90;;;;;;5034900;28;20525;-73
2024/01/12 10:32:06;;;;;;;24.77;10.88;;;-4.90;99.90;;;;;;5034854;28;20030;-73
2024/01/12 10:34:36;;;;;;;19.42;10.70;;;-4.90;99.90;;;;;;5033073;28;20393;-73
2024/01/12 10:37:05;;;;;;;26.97;13.17;;;-4.80;99.90;;;;;;5034403;28;20075;-73
2024/01/12 10:39:35;;;;;;;29.48;13.55;;;-4.70;99.90;;;;;;5032345;28;20025;-73
2024/01/12 10:42:05;;;;;;;32.13;15.65;;;-4.60;99.90;;;;;;5032973;28;20120;-73
2024/01/12 10:44:35;;;;;;;27.88;13.95;;;-4.60;99.90;;;;;;5034135;28;20025;-73
2024/01/12 10:47:05;;;;;;;31.65;14.10;;;-4.50;99.90;;;;;;5033956;28;20068;-73
2024/01/12 10:49:42;;;;;;;28.00;13.52;;;-4.40;99.90;;;;;;5033893;28;20065;-73
2024/01/12 10:52:34;;;;;;;27.23;12.07;;;-4.30;99.90;;;;;;5034302;28;20413;-73
2024/01/12 10:55:00;;;;;;;24.98;12.50;;;-4.20;99.90;;;;;;5032690;28;20033;-73
2024/01/12 10:57:26;;;;;;;25.67;12.73;;;-4.10;99.90;;;;;;5034186;28;20025;-73
2024/01/12 10:59:53;;;;;;;26.95;13.10;;;-4.00;99.90;;;;;;5033997;28;20033;-73
2024/01/12 11:02:20;;;;;;;27.20;13.48;;;-4.00;99.90;;;;;;5033834;28;20107;-73
2024/01/12 11:04:46;;;;;;;23.65;12.52;;;-3.90;99.90;;;;;;5033768;28;20423;-73
2024/01/12 11:07:14;;;;;;;23.30;12.50;;;-3.90;99.90;;;;;;5033848;28;20100;-74
2024/01/12 11:09:40;;;;;;;27.02;12.88;;;-3.80;99.90;;;;;;5034278;28;20101;-74
2024/01/12 11:12:11;;;;;;;26.05;12.00;;;-3.80;99.90;;;;;;5033698;28;20052;-74
2024/01/12 11:14:39;;;;;;;29.00;13.77;;;-3.70;99.90;;;;;;5032765;28;20030;-74
2024/01/12 11:17:08;;;;;;;24.48;12.18;;;-3.70;99.90;;;;;;5033705;28;20428;-73
2024/01/12 11:19:34;;;;;;;24.40;12.40;;;-3.60;99.90;;;;;;5033691;28;20504;-73
2024/01/12 11:22:07;;;;;;;29.52;13.38;;;-3.50;99.90;;;;;;5033606;28;20033;-74
2024/01/12 11:24:44;;;;;;;24.98;12.85;;;-3.40;99.90;;;;;;5033551;28;20025;-73
2024/01/12 11:27:12;;;;;;;28.63;14.07;;;-3.40;99.90;;;;;;5033583;28;20385;-73
2024/01/12 11:29:40;;;;;;;27.58;13.23;;;-3.30;99.90;;;;;;5033312;28;20402;-73
2024/01/12 11:32:06;;;;;;;27.25;13.02;;;-3.30;99.90;;;;;;5032149;28;20033;-74
2024/01/12 11:34:36;;;;;;;26.60;12.45;;;-3.20;99.90;;;;;;5033637;28;20053;-74
2024/01/12 11:37:02;;;;;;;27.50;12.43;;;-3.20;99.90;;;;;;5033694;28;20017;-73
2024/01/12 11:39:39;;;;;;;27.42;13.05;;;-3.20;99.90;;;;;;5032129;28;20112;-73
2024/01/12 11:42:05;;;;;;;28.50;12.82;;;-3.10;99.90;;;;;;5033821;28;20056;-73
2024/01/12 11:44:35;;;;;;;24.95;12.05;;;-3.00;99.90;;;;;;5033294;28;20509;-74
2024/01/12 11:47:01;;;;;;;26.85;11.52;;;-3.00;99.90;;;;;;5034142;28;20030;-73
2024/01/12 11:49:27;;;;;;;28.17;12.60;;;-2.90;99.90;;;;;;5033691;28;20509;-72
2024/01/12 11:52:02;;;;;;;24.15;11.85;;;-2.80;99.90;;;;;;5032995;28;20026;-73
2024/01/12 11:54:27;;;;;;;25.70;11.40;;;-2.80;99.90;;;;;;5031952;28;20447;-74
2024/01/12 11:56:53;;;;;;;28.33;13.02;;;-2.70;99.90;;;;;;5033365;28;20060;-73
2024/01/12 11:59:19;;;;;;;25.73;11.85;;;-2.70;99.90;;;;;;5033190;28;20079;-73
2024/01/12 12:01:44;;;;;;;24.67;11.77;;;-2.60;99.90;;;;;;5033083;28;20080;-74
2024/01/12 12:04:10;;;;;;;23.20;12.13;;;-2.60;99.90;;;;;;5033082;28;20030;-73
2024/01/12 12:06:36;;;;;;;23.85;12.07;;;-2.50;99.90;;;;;;5033072;28;20034;-73
2024/01/12 12:09:01;;;;;;;23.10;12.75;;;-2.50;99.90;;;;;;5032977;28;20029;-73
2024/01/12 12:11:27;;;;;;;27.38;12.73;;;-2.40;99.90;;;;;;5034373;28;20387;-73
2024/01/12 12:13:57;;;;;;;28.83;11.88;;;-2.30;99.90;;;;;;5036924;28;20064;-73
2024/01/12 12:16:23;;;;;;;25.17;12.23;;;-2.20;99.90;;;;;;5036794;28;20108;-73
2024/01/12 12:18:49;;;;;;;46.10;13.20;;;-2.10;99.90;;;;;;5036857;28;20104;-74
2024/01/12 12:21:14;;;;;;;32.25;12.80;;;-2.10;99.90;;;;;;5037494;28;20034;-73
2024/01/12 12:23:41;;;;;;;37.60;15.32;;;-2.00;99.90;;;;;;5037011;28;20083;-73
2024/01/12 12:26:08;;;;;;;22.50;11.68;;;-2.00;99.90;;;;;;5037086;28;20534;-73
2024/01/12 12:28:34;;;;;;;25.08;11.10;;;-1.90;99.90;;;;;;5036682;28;20026;-73